L M Clayton Airport
KOLF : rendu visible

Aérodrome :











RETROUVEZ-NOUS SUR...

 
LOGIN :

S'inscrire | Disclaimer

   EN    FR    IT 

 









Légende :    VFR   VFR Marginal   IFR   IFR Intensif   IFR Très Intensif
Visi : 
Plafond : 
>= 8 km
>= 3000ft
5 à 8 km
1000 à 3000 ft
1500m à 5 km
500 à 1000 ft
800 à 1500m
200 à 500 ft
< 800m
< 200 ft
Symboles :   Orages  Brouillard  Fortes neiges  Fortes précipitations  Vent > 20 kt






- Altitude de l'aérodrome : 1986 ft


KOLF - L M Clayton

DERNIER METAR :
  • 222253Z AUTO 26005KT 10SM CLR 03/M03 A2981 RMK AO2 SLP122 T00281028

METARs EXPIRÉS :
  • 222153Z AUTO 27004KT 10SM CLR 04/M02 A2980 RMK AO2 SLP119 T00391022
  • 222053Z AUTO 25011KT 10SM CLR 04/M02 A2980 RMK AO2 SLP119 T00391022 58019

TAF KOLF
Valide du 23 à 00h jusqu'au 24 à 00h UTC


222320Z 2300/2324 26009KT P6SM SKC WS020/31035KT
FM230600 25007KT P6SM SCT080
FM231100 25007KT 6SM BR SCT002
FM231400 25008KT P6SM BKN100



MET'MAP, la Météo Aéronautique d'un coup d'oeil ! - Copyright ORBIFLY Décembre 2007 - Disclaimer

ORBIFLY MET'MAP TEAM :

Programmation & Développement : Alexandra Zaïnal
Conception & Développement : Baudouin d'Aumeries
Co-Programmation & Développement : Marc-Olivier Méhu
Soutien technique & logistique : Manuel Goepfert

Contact : metmap@orbifly.com




SOURCES & CREDITS :

   NOAA       Earth
Advisory